DNAA

Nnamdi Azikiwe International Airport

Abuja, Nigeria
METAR DNAA 181300Z 26004KT 190V330 7000 NSC 35/01 Q1013 NOSIG
Observed Flight Rules
Dec-18 @ 13:00 UTC (an hour ago) Marginal Visual Flight Rules
Wind Visibility Clouds
260° at 4 knots 7,001 meters
  • Clear skies
Temperatures Readings
Current 35°C / 95°F
Dewpoint 1°C / 34°F
Humidity 11%
Altimeter 29.91" Hg
Pressure 1013 hPa
Elevation 344
METAR DNAA 181300Z 26004KT 190V330 7000 NSC 35/01 Q1013 NOSIG
Observed Flight Rules
Dec-18 @ 13:00 UTC
(an hour ago)
MVFR
Wind Visibility
260° at 4 knots 7,001 meters
Clouds
  • Clear skies
Temperature Dewpoint
35°C / 95°F 1°C / 34°F
Humidity Altimeter Pressure
11% 29.91" Hg 1013 hPa